sensor_id;sensor_type;location;lat;lon;timestamp;P1;durP1;ratioP1;P2;durP2;ratioP2
55212;SDS011;41083;52.932;6.674;2022-07-09T00:01:45;3.53;;;1.50;;
55212;SDS011;41083;52.932;6.674;2022-07-09T00:04:11;3.03;;;1.50;;
55212;SDS011;41083;52.932;6.674;2022-07-09T00:06:36;2.65;;;1.40;;
55212;SDS011;41083;52.932;6.674;2022-07-09T00:09:02;3.35;;;1.45;;
55212;SDS011;41083;52.932;6.674;2022-07-09T00:11:28;3.25;;;1.60;;
55212;SDS011;41083;52.932;6.674;2022-07-09T00:13:53;3.78;;;1.70;;
55212;SDS011;41083;52.932;6.674;2022-07-09T00:16:19;6.15;;;1.73;;
55212;SDS011;41083;52.932;6.674;2022-07-09T00:18:44;3.63;;;1.67;;
55212;SDS011;41083;52.932;6.674;2022-07-09T00:21:10;4.18;;;1.77;;
55212;SDS011;41083;52.932;6.674;2022-07-09T00:23:36;3.60;;;1.80;;
55212;SDS011;41083;52.932;6.674;2022-07-09T00:26:01;2.83;;;1.75;;
55212;SDS011;41083;52.932;6.674;2022-07-09T00:28:27;4.78;;;1.77;;
55212;SDS011;41083;52.932;6.674;2022-07-09T00:30:53;3.10;;;1.52;;
55212;SDS011;41083;52.932;6.674;2022-07-09T00:33:19;5.88;;;2.00;;
55212;SDS011;41083;52.932;6.674;2022-07-09T00:35:44;3.97;;;1.75;;
55212;SDS011;41083;52.932;6.674;2022-07-09T00:38:10;2.63;;;1.25;;
55212;SDS011;41083;52.932;6.674;2022-07-09T00:40:35;3.78;;;1.60;;
55212;SDS011;41083;52.932;6.674;2022-07-09T00:43:01;4.50;;;1.63;;
55212;SDS011;41083;52.932;6.674;2022-07-09T00:45:27;6.18;;;2.38;;
55212;SDS011;41083;52.932;6.674;2022-07-09T00:47:52;4.20;;;1.60;;
55212;SDS011;41083;52.932;6.674;2022-07-09T00:50:18;8.00;;;1.98;;
55212;SDS011;41083;52.932;6.674;2022-07-09T00:52:44;2.75;;;1.75;;
55212;SDS011;41083;52.932;6.674;2022-07-09T00:55:10;3.08;;;1.88;;
55212;SDS011;41083;52.932;6.674;2022-07-09T00:57:37;2.30;;;1.52;;
55212;SDS011;41083;52.932;6.674;2022-07-09T01:00:04;6.65;;;1.80;;
55212;SDS011;41083;52.932;6.674;2022-07-09T01:02:30;2.53;;;1.40;;
55212;SDS011;41083;52.932;6.674;2022-07-09T01:04:56;2.83;;;1.52;;
55212;SDS011;41083;52.932;6.674;2022-07-09T01:07:22;4.63;;;1.98;;
55212;SDS011;41083;52.932;6.674;2022-07-09T01:09:47;3.15;;;1.77;;
55212;SDS011;41083;52.932;6.674;2022-07-09T01:12:13;5.88;;;1.73;;
55212;SDS011;41083;52.932;6.674;2022-07-09T01:14:39;4.13;;;1.75;;
55212;SDS011;41083;52.932;6.674;2022-07-09T01:17:05;1.95;;;1.25;;
55212;SDS011;41083;52.932;6.674;2022-07-09T01:19:32;3.30;;;1.30;;
55212;SDS011;41083;52.932;6.674;2022-07-09T01:21:58;7.10;;;1.63;;
55212;SDS011;41083;52.932;6.674;2022-07-09T01:24:24;2.42;;;1.45;;
55212;SDS011;41083;52.932;6.674;2022-07-09T01:26:51;3.60;;;1.65;;
55212;SDS011;41083;52.932;6.674;2022-07-09T01:29:18;2.60;;;1.40;;
55212;SDS011;41083;52.932;6.674;2022-07-09T01:31:44;14.57;;;1.98;;
55212;SDS011;41083;52.932;6.674;2022-07-09T01:34:10;3.95;;;1.88;;
55212;SDS011;41083;52.932;6.674;2022-07-09T01:36:36;3.35;;;1.52;;
55212;SDS011;41083;52.932;6.674;2022-07-09T01:39:01;4.07;;;1.95;;
55212;SDS011;41083;52.932;6.674;2022-07-09T01:41:27;2.78;;;1.45;;
55212;SDS011;41083;52.932;6.674;2022-07-09T01:43:53;3.25;;;2.00;;
55212;SDS011;41083;52.932;6.674;2022-07-09T01:46:18;2.53;;;1.30;;
55212;SDS011;41083;52.932;6.674;2022-07-09T01:48:44;8.75;;;2.30;;
55212;SDS011;41083;52.932;6.674;2022-07-09T01:51:10;2.72;;;1.83;;
55212;SDS011;41083;52.932;6.674;2022-07-09T01:53:37;3.40;;;1.65;;
55212;SDS011;41083;52.932;6.674;2022-07-09T01:56:08;3.95;;;1.80;;
55212;SDS011;41083;52.932;6.674;2022-07-09T01:58:35;3.58;;;2.03;;
55212;SDS011;41083;52.932;6.674;2022-07-09T02:01:01;6.47;;;2.17;;
55212;SDS011;41083;52.932;6.674;2022-07-09T02:03:27;6.57;;;2.13;;
55212;SDS011;41083;52.932;6.674;2022-07-09T02:05:53;4.13;;;2.00;;
55212;SDS011;41083;52.932;6.674;2022-07-09T02:08:19;6.40;;;2.22;;
55212;SDS011;41083;52.932;6.674;2022-07-09T02:10:44;3.58;;;1.90;;
55212;SDS011;41083;52.932;6.674;2022-07-09T02:13:11;3.17;;;1.95;;
55212;SDS011;41083;52.932;6.674;2022-07-09T02:15:37;4.38;;;1.70;;
55212;SDS011;41083;52.932;6.674;2022-07-09T02:18:03;4.82;;;2.05;;
55212;SDS011;41083;52.932;6.674;2022-07-09T02:20:29;4.40;;;2.40;;
55212;SDS011;41083;52.932;6.674;2022-07-09T02:22:55;4.32;;;2.08;;
55212;SDS011;41083;52.932;6.674;2022-07-09T02:25:20;6.47;;;2.65;;
55212;SDS011;41083;52.932;6.674;2022-07-09T02:27:46;5.80;;;2.70;;
55212;SDS011;41083;52.932;6.674;2022-07-09T02:30:11;3.40;;;1.92;;
55212;SDS011;41083;52.932;6.674;2022-07-09T02:32:38;3.30;;;2.03;;
55212;SDS011;41083;52.932;6.674;2022-07-09T02:35:04;4.47;;;2.15;;
55212;SDS011;41083;52.932;6.674;2022-07-09T02:37:30;4.35;;;2.08;;
55212;SDS011;41083;52.932;6.674;2022-07-09T02:39:57;2.75;;;1.90;;
55212;SDS011;41083;52.932;6.674;2022-07-09T02:42:23;4.40;;;1.95;;
55212;SDS011;41083;52.932;6.674;2022-07-09T02:44:48;5.95;;;1.80;;
55212;SDS011;41083;52.932;6.674;2022-07-09T02:47:14;5.13;;;1.92;;
55212;SDS011;41083;52.932;6.674;2022-07-09T02:49:39;3.65;;;1.90;;
55212;SDS011;41083;52.932;6.674;2022-07-09T02:52:05;4.28;;;1.80;;
55212;SDS011;41083;52.932;6.674;2022-07-09T02:54:31;5.43;;;2.53;;
55212;SDS011;41083;52.932;6.674;2022-07-09T02:56:57;8.02;;;1.98;;
55212;SDS011;41083;52.932;6.674;2022-07-09T02:59:23;3.85;;;1.77;;
55212;SDS011;41083;52.932;6.674;2022-07-09T03:01:48;3.67;;;1.80;;
55212;SDS011;41083;52.932;6.674;2022-07-09T03:04:14;4.95;;;1.50;;
55212;SDS011;41083;52.932;6.674;2022-07-09T03:06:39;5.32;;;1.80;;
55212;SDS011;41083;52.932;6.674;2022-07-09T03:09:05;7.20;;;1.75;;
55212;SDS011;41083;52.932;6.674;2022-07-09T03:11:31;5.43;;;2.08;;
55212;SDS011;41083;52.932;6.674;2022-07-09T03:13:57;3.45;;;1.85;;
55212;SDS011;41083;52.932;6.674;2022-07-09T03:16:22;3.10;;;1.58;;
55212;SDS011;41083;52.932;6.674;2022-07-09T03:18:48;3.47;;;1.73;;
55212;SDS011;41083;52.932;6.674;2022-07-09T03:21:14;3.13;;;1.58;;
55212;SDS011;41083;52.932;6.674;2022-07-09T03:23:39;4.13;;;1.52;;
55212;SDS011;41083;52.932;6.674;2022-07-09T03:26:05;3.13;;;1.30;;
55212;SDS011;41083;52.932;6.674;2022-07-09T03:28:31;2.70;;;1.40;;
55212;SDS011;41083;52.932;6.674;2022-07-09T03:30:57;3.25;;;1.50;;
55212;SDS011;41083;52.932;6.674;2022-07-09T03:33:23;3.55;;;1.23;;
55212;SDS011;41083;52.932;6.674;2022-07-09T03:35:48;3.47;;;1.55;;
55212;SDS011;41083;52.932;6.674;2022-07-09T03:38:14;3.63;;;1.10;;
55212;SDS011;41083;52.932;6.674;2022-07-09T03:40:40;4.10;;;1.50;;
55212;SDS011;41083;52.932;6.674;2022-07-09T03:43:06;2.38;;;1.33;;
55212;SDS011;41083;52.932;6.674;2022-07-09T03:45:31;3.05;;;1.20;;
55212;SDS011;41083;52.932;6.674;2022-07-09T03:47:57;4.80;;;1.58;;
55212;SDS011;41083;52.932;6.674;2022-07-09T03:50:22;4.82;;;1.10;;
55212;SDS011;41083;52.932;6.674;2022-07-09T03:52:48;3.25;;;1.20;;
55212;SDS011;41083;52.932;6.674;2022-07-09T03:55:14;3.85;;;1.40;;
55212;SDS011;41083;52.932;6.674;2022-07-09T03:57:40;3.35;;;1.33;;
55212;SDS011;41083;52.932;6.674;2022-07-09T04:00:07;5.70;;;1.50;;
55212;SDS011;41083;52.932;6.674;2022-07-09T04:02:33;3.58;;;1.23;;
55212;SDS011;41083;52.932;6.674;2022-07-09T04:04:59;2.95;;;1.25;;
55212;SDS011;41083;52.932;6.674;2022-07-09T04:07:24;2.22;;;0.90;;
55212;SDS011;41083;52.932;6.674;2022-07-09T04:09:54;2.22;;;1.20;;
55212;SDS011;41083;52.932;6.674;2022-07-09T04:12:20;3.10;;;0.98;;
55212;SDS011;41083;52.932;6.674;2022-07-09T04:14:46;4.40;;;1.30;;
55212;SDS011;41083;52.932;6.674;2022-07-09T04:17:12;4.95;;;1.52;;
55212;SDS011;41083;52.932;6.674;2022-07-09T04:19:38;3.85;;;1.52;;
55212;SDS011;41083;52.932;6.674;2022-07-09T04:22:03;2.08;;;0.98;;
55212;SDS011;41083;52.932;6.674;2022-07-09T04:24:29;2.00;;;1.02;;
55212;SDS011;41083;52.932;6.674;2022-07-09T04:26:55;3.35;;;1.08;;
55212;SDS011;41083;52.932;6.674;2022-07-09T04:29:21;2.85;;;1.20;;
55212;SDS011;41083;52.932;6.674;2022-07-09T04:31:47;1.65;;;1.00;;
55212;SDS011;41083;52.932;6.674;2022-07-09T04:34:12;3.72;;;1.02;;
55212;SDS011;41083;52.932;6.674;2022-07-09T04:36:38;2.88;;;1.20;;
55212;SDS011;41083;52.932;6.674;2022-07-09T04:39:04;2.95;;;1.50;;
55212;SDS011;41083;52.932;6.674;2022-07-09T04:41:29;5.13;;;1.60;;
55212;SDS011;41083;52.932;6.674;2022-07-09T04:43:55;3.20;;;1.48;;
55212;SDS011;41083;52.932;6.674;2022-07-09T04:46:21;4.05;;;1.40;;
55212;SDS011;41083;52.932;6.674;2022-07-09T04:48:47;3.92;;;1.30;;
55212;SDS011;41083;52.932;6.674;2022-07-09T04:51:13;3.75;;;1.88;;
55212;SDS011;41083;52.932;6.674;2022-07-09T04:53:39;4.60;;;1.30;;
55212;SDS011;41083;52.932;6.674;2022-07-09T04:56:04;2.17;;;1.00;;
55212;SDS011;41083;52.932;6.674;2022-07-09T04:58:31;3.92;;;1.52;;
55212;SDS011;41083;52.932;6.674;2022-07-09T05:00:57;3.63;;;1.65;;
55212;SDS011;41083;52.932;6.674;2022-07-09T05:03:23;2.80;;;1.13;;
55212;SDS011;41083;52.932;6.674;2022-07-09T05:05:49;2.90;;;1.45;;
55212;SDS011;41083;52.932;6.674;2022-07-09T05:08:16;3.95;;;1.38;;
55212;SDS011;41083;52.932;6.674;2022-07-09T05:10:42;4.13;;;1.52;;
55212;SDS011;41083;52.932;6.674;2022-07-09T05:13:07;4.55;;;1.40;;
55212;SDS011;41083;52.932;6.674;2022-07-09T05:15:33;2.70;;;1.38;;
55212;SDS011;41083;52.932;6.674;2022-07-09T05:17:59;4.32;;;1.55;;
55212;SDS011;41083;52.932;6.674;2022-07-09T05:20:24;5.13;;;2.08;;
55212;SDS011;41083;52.932;6.674;2022-07-09T05:22:50;2.88;;;1.25;;
55212;SDS011;41083;52.932;6.674;2022-07-09T05:25:16;4.70;;;1.55;;
55212;SDS011;41083;52.932;6.674;2022-07-09T05:27:42;2.75;;;1.23;;
55212;SDS011;41083;52.932;6.674;2022-07-09T05:30:09;3.83;;;1.67;;
55212;SDS011;41083;52.932;6.674;2022-07-09T05:32:35;4.10;;;1.60;;
55212;SDS011;41083;52.932;6.674;2022-07-09T05:35:00;2.90;;;1.50;;
55212;SDS011;41083;52.932;6.674;2022-07-09T05:37:26;3.90;;;1.92;;
55212;SDS011;41083;52.932;6.674;2022-07-09T05:39:51;3.45;;;1.67;;
55212;SDS011;41083;52.932;6.674;2022-07-09T05:42:17;3.80;;;2.03;;
55212;SDS011;41083;52.932;6.674;2022-07-09T05:44:42;5.93;;;1.80;;
55212;SDS011;41083;52.932;6.674;2022-07-09T05:47:08;3.60;;;1.38;;
55212;SDS011;41083;52.932;6.674;2022-07-09T05:49:34;3.95;;;1.38;;
55212;SDS011;41083;52.932;6.674;2022-07-09T05:51:59;4.43;;;1.60;;
55212;SDS011;41083;52.932;6.674;2022-07-09T05:54:25;3.50;;;1.65;;
55212;SDS011;41083;52.932;6.674;2022-07-09T05:56:50;4.93;;;1.63;;
55212;SDS011;41083;52.932;6.674;2022-07-09T05:59:16;4.28;;;1.52;;
55212;SDS011;41083;52.932;6.674;2022-07-09T06:01:42;2.92;;;1.15;;
55212;SDS011;41083;52.932;6.674;2022-07-09T06:04:08;2.55;;;1.20;;
55212;SDS011;41083;52.932;6.674;2022-07-09T06:06:34;2.92;;;1.38;;
55212;SDS011;41083;52.932;6.674;2022-07-09T06:09:00;2.70;;;1.38;;
55212;SDS011;41083;52.932;6.674;2022-07-09T06:11:26;3.40;;;1.30;;
55212;SDS011;41083;52.932;6.674;2022-07-09T06:13:51;2.78;;;1.27;;
55212;SDS011;41083;52.932;6.674;2022-07-09T06:16:17;5.00;;;1.48;;
55212;SDS011;41083;52.932;6.674;2022-07-09T06:18:43;2.20;;;1.10;;
55212;SDS011;41083;52.932;6.674;2022-07-09T06:21:08;2.25;;;1.13;;
55212;SDS011;41083;52.932;6.674;2022-07-09T06:23:34;2.90;;;1.35;;
55212;SDS011;41083;52.932;6.674;2022-07-09T06:26:00;2.63;;;1.13;;
55212;SDS011;41083;52.932;6.674;2022-07-09T06:28:25;3.38;;;1.52;;
55212;SDS011;41083;52.932;6.674;2022-07-09T06:30:51;2.10;;;0.93;;
55212;SDS011;41083;52.932;6.674;2022-07-09T06:33:17;3.50;;;1.52;;
55212;SDS011;41083;52.932;6.674;2022-07-09T06:35:42;4.50;;;1.33;;
55212;SDS011;41083;52.932;6.674;2022-07-09T06:38:08;5.30;;;1.17;;
55212;SDS011;41083;52.932;6.674;2022-07-09T06:40:33;3.22;;;1.23;;
55212;SDS011;41083;52.932;6.674;2022-07-09T06:42:59;2.33;;;1.05;;
55212;SDS011;41083;52.932;6.674;2022-07-09T06:45:25;2.50;;;1.17;;
55212;SDS011;41083;52.932;6.674;2022-07-09T06:47:51;2.78;;;1.00;;
55212;SDS011;41083;52.932;6.674;2022-07-09T06:50:18;3.10;;;1.27;;
55212;SDS011;41083;52.932;6.674;2022-07-09T06:52:43;1.98;;;1.15;;
55212;SDS011;41083;52.932;6.674;2022-07-09T06:55:09;2.95;;;1.25;;
55212;SDS011;41083;52.932;6.674;2022-07-09T06:57:35;2.97;;;0.95;;
55212;SDS011;41083;52.932;6.674;2022-07-09T07:00:02;4.32;;;1.20;;
55212;SDS011;41083;52.932;6.674;2022-07-09T07:02:29;2.33;;;1.10;;
55212;SDS011;41083;52.932;6.674;2022-07-09T07:04:55;4.25;;;1.17;;
55212;SDS011;41083;52.932;6.674;2022-07-09T07:07:21;2.72;;;1.35;;
55212;SDS011;41083;52.932;6.674;2022-07-09T07:09:46;3.63;;;1.02;;
55212;SDS011;41083;52.932;6.674;2022-07-09T07:12:12;2.92;;;1.40;;
55212;SDS011;41083;52.932;6.674;2022-07-09T07:14:37;3.42;;;1.13;;
55212;SDS011;41083;52.932;6.674;2022-07-09T07:17:03;2.33;;;1.08;;
55212;SDS011;41083;52.932;6.674;2022-07-09T07:19:29;2.83;;;1.20;;
55212;SDS011;41083;52.932;6.674;2022-07-09T07:21:54;2.25;;;1.00;;
55212;SDS011;41083;52.932;6.674;2022-07-09T07:24:20;2.33;;;1.20;;
55212;SDS011;41083;52.932;6.674;2022-07-09T07:26:46;2.00;;;1.30;;
55212;SDS011;41083;52.932;6.674;2022-07-09T07:29:11;2.70;;;1.00;;
55212;SDS011;41083;52.932;6.674;2022-07-09T07:31:37;1.85;;;1.00;;
55212;SDS011;41083;52.932;6.674;2022-07-09T07:34:02;2.58;;;0.68;;
55212;SDS011;41083;52.932;6.674;2022-07-09T07:36:28;2.10;;;0.93;;
55212;SDS011;41083;52.932;6.674;2022-07-09T07:38:53;2.15;;;1.15;;
55212;SDS011;41083;52.932;6.674;2022-07-09T07:41:19;1.50;;;0.90;;
55212;SDS011;41083;52.932;6.674;2022-07-09T07:43:46;2.55;;;0.82;;
55212;SDS011;41083;52.932;6.674;2022-07-09T07:46:12;1.98;;;0.85;;
55212;SDS011;41083;52.932;6.674;2022-07-09T07:48:38;2.30;;;1.08;;
55212;SDS011;41083;52.932;6.674;2022-07-09T07:51:06;1.63;;;0.85;;
55212;SDS011;41083;52.932;6.674;2022-07-09T07:53:33;3.35;;;0.90;;
55212;SDS011;41083;52.932;6.674;2022-07-09T07:56:04;1.30;;;0.70;;
55212;SDS011;41083;52.932;6.674;2022-07-09T07:58:32;1.27;;;0.43;;
55212;SDS011;41083;52.932;6.674;2022-07-09T08:00:57;1.73;;;0.65;;
55212;SDS011;41083;52.932;6.674;2022-07-09T08:03:23;0.85;;;0.60;;
55212;SDS011;41083;52.932;6.674;2022-07-09T08:05:49;5.93;;;0.80;;
55212;SDS011;41083;52.932;6.674;2022-07-09T08:08:15;1.50;;;0.88;;
55212;SDS011;41083;52.932;6.674;2022-07-09T08:10:43;2.95;;;0.95;;
55212;SDS011;41083;52.932;6.674;2022-07-09T08:13:10;1.45;;;0.70;;
55212;SDS011;41083;52.932;6.674;2022-07-09T08:15:37;1.58;;;0.80;;
55212;SDS011;41083;52.932;6.674;2022-07-09T08:18:03;1.58;;;0.70;;
55212;SDS011;41083;52.932;6.674;2022-07-09T08:20:28;2.47;;;0.65;;
55212;SDS011;41083;52.932;6.674;2022-07-09T08:22:54;1.67;;;0.70;;
55212;SDS011;41083;52.932;6.674;2022-07-09T08:25:20;1.55;;;0.70;;
55212;SDS011;41083;52.932;6.674;2022-07-09T08:27:45;1.23;;;0.70;;
55212;SDS011;41083;52.932;6.674;2022-07-09T08:30:11;0.85;;;0.52;;
55212;SDS011;41083;52.932;6.674;2022-07-09T08:32:36;2.55;;;0.70;;
55212;SDS011;41083;52.932;6.674;2022-07-09T08:35:04;2.17;;;0.57;;
55212;SDS011;41083;52.932;6.674;2022-07-09T08:37:30;1.00;;;0.50;;
55212;SDS011;41083;52.932;6.674;2022-07-09T08:39:55;2.83;;;0.68;;
55212;SDS011;41083;52.932;6.674;2022-07-09T08:42:21;2.92;;;0.73;;
55212;SDS011;41083;52.932;6.674;2022-07-09T08:44:47;2.08;;;0.80;;
55212;SDS011;41083;52.932;6.674;2022-07-09T08:47:14;1.73;;;0.82;;
55212;SDS011;41083;52.932;6.674;2022-07-09T08:49:40;1.60;;;0.60;;
55212;SDS011;41083;52.932;6.674;2022-07-09T08:52:07;2.85;;;0.50;;
55212;SDS011;41083;52.932;6.674;2022-07-09T08:54:34;1.10;;;0.80;;
55212;SDS011;41083;52.932;6.674;2022-07-09T08:57:02;1.48;;;0.50;;
55212;SDS011;41083;52.932;6.674;2022-07-09T08:59:29;0.90;;;0.40;;
55212;SDS011;41083;52.932;6.674;2022-07-09T09:01:55;0.65;;;0.30;;
55212;SDS011;41083;52.932;6.674;2022-07-09T09:04:20;1.23;;;0.60;;
55212;SDS011;41083;52.932;6.674;2022-07-09T09:06:46;1.23;;;0.40;;
55212;SDS011;41083;52.932;6.674;2022-07-09T09:09:17;1.90;;;0.68;;
55212;SDS011;41083;52.932;6.674;2022-07-09T09:11:46;1.02;;;0.52;;
55212;SDS011;41083;52.932;6.674;2022-07-09T09:14:21;1.00;;;0.73;;
55212;SDS011;41083;52.932;6.674;2022-07-09T09:16:47;1.42;;;0.50;;
55212;SDS011;41083;52.932;6.674;2022-07-09T09:19:13;0.30;;;0.30;;
55212;SDS011;41083;52.932;6.674;2022-07-09T09:21:39;0.77;;;0.40;;
55212;SDS011;41083;52.932;6.674;2022-07-09T09:24:04;0.55;;;0.40;;
55212;SDS011;41083;52.932;6.674;2022-07-09T09:26:31;2.25;;;0.80;;
55212;SDS011;41083;52.932;6.674;2022-07-09T09:29:02;1.38;;;0.55;;
55212;SDS011;41083;52.932;6.674;2022-07-09T09:31:35;1.08;;;0.70;;
55212;SDS011;41083;52.932;6.674;2022-07-09T09:36:41;1.38;;;0.50;;
55212;SDS011;41083;52.932;6.674;2022-07-09T09:39:26;0.80;;;0.47;;
55212;SDS011;41083;52.932;6.674;2022-07-09T09:41:53;1.27;;;0.40;;
55212;SDS011;41083;52.932;6.674;2022-07-09T09:44:30;0.70;;;0.40;;
55212;SDS011;41083;52.932;6.674;2022-07-09T09:47:02;1.25;;;0.43;;
55212;SDS011;41083;52.932;6.674;2022-07-09T09:49:29;1.05;;;0.40;;
55212;SDS011;41083;52.932;6.674;2022-07-09T09:52:04;0.57;;;0.30;;
55212;SDS011;41083;52.932;6.674;2022-07-09T09:54:32;0.98;;;0.45;;
55212;SDS011;41083;52.932;6.674;2022-07-09T09:56:59;1.00;;;0.50;;
55212;SDS011;41083;52.932;6.674;2022-07-09T09:59:25;3.58;;;0.30;;
55212;SDS011;41083;52.932;6.674;2022-07-09T10:01:51;0.80;;;0.55;;
55212;SDS011;41083;52.932;6.674;2022-07-09T10:04:16;0.35;;;0.20;;
55212;SDS011;41083;52.932;6.674;2022-07-09T10:06:43;1.85;;;0.35;;
55212;SDS011;41083;52.932;6.674;2022-07-09T10:09:13;0.50;;;0.40;;
55212;SDS011;41083;52.932;6.674;2022-07-09T10:11:43;0.45;;;0.40;;
55212;SDS011;41083;52.932;6.674;2022-07-09T10:14:15;1.95;;;0.50;;
55212;SDS011;41083;52.932;6.674;2022-07-09T10:16:50;1.67;;;0.40;;
55212;SDS011;41083;52.932;6.674;2022-07-09T10:19:24;0.57;;;0.40;;
55212;SDS011;41083;52.932;6.674;2022-07-09T10:21:51;0.45;;;0.25;;
55212;SDS011;41083;52.932;6.674;2022-07-09T10:24:29;0.77;;;0.32;;
55212;SDS011;41083;52.932;6.674;2022-07-09T10:27:06;1.35;;;0.50;;
55212;SDS011;41083;52.932;6.674;2022-07-09T10:29:33;4.63;;;0.47;;
55212;SDS011;41083;52.932;6.674;2022-07-09T10:32:00;2.05;;;0.80;;
55212;SDS011;41083;52.932;6.674;2022-07-09T10:37:13;0.82;;;0.43;;
55212;SDS011;41083;52.932;6.674;2022-07-09T10:39:38;1.17;;;0.38;;
55212;SDS011;41083;52.932;6.674;2022-07-09T10:42:16;1.73;;;0.57;;
55212;SDS011;41083;52.932;6.674;2022-07-09T10:44:44;1.73;;;0.47;;
55212;SDS011;41083;52.932;6.674;2022-07-09T10:47:11;2.90;;;0.88;;
55212;SDS011;41083;52.932;6.674;2022-07-09T10:49:37;0.60;;;0.40;;
55212;SDS011;41083;52.932;6.674;2022-07-09T10:52:04;0.65;;;0.40;;
55212;SDS011;41083;52.932;6.674;2022-07-09T10:54:30;2.38;;;0.70;;
55212;SDS011;41083;52.932;6.674;2022-07-09T10:56:56;2.45;;;0.50;;
55212;SDS011;41083;52.932;6.674;2022-07-09T10:59:22;1.20;;;0.40;;
55212;SDS011;41083;52.932;6.674;2022-07-09T11:01:49;0.38;;;0.20;;
55212;SDS011;41083;52.932;6.674;2022-07-09T11:04:30;1.70;;;0.40;;
55212;SDS011;41083;52.932;6.674;2022-07-09T11:06:57;1.20;;;0.50;;
55212;SDS011;41083;52.932;6.674;2022-07-09T11:09:26;0.80;;;0.40;;
55212;SDS011;41083;52.932;6.674;2022-07-09T11:11:55;1.33;;;0.50;;
55212;SDS011;41083;52.932;6.674;2022-07-09T11:14:22;1.95;;;0.40;;
55212;SDS011;41083;52.932;6.674;2022-07-09T11:16:54;1.55;;;0.50;;
55212;SDS011;41083;52.932;6.674;2022-07-09T11:19:21;1.38;;;0.60;;
55212;SDS011;41083;52.932;6.674;2022-07-09T11:21:47;3.85;;;0.60;;
55212;SDS011;41083;52.932;6.674;2022-07-09T11:26:48;2.95;;;0.40;;
55212;SDS011;41083;52.932;6.674;2022-07-09T11:29:14;0.93;;;0.63;;
55212;SDS011;41083;52.932;6.674;2022-07-09T11:31:51;2.05;;;0.50;;
55212;SDS011;41083;52.932;6.674;2022-07-09T11:34:18;1.40;;;0.43;;
55212;SDS011;41083;52.932;6.674;2022-07-09T11:36:51;1.00;;;0.50;;
55212;SDS011;41083;52.932;6.674;2022-07-09T11:41:54;0.93;;;0.40;;
55212;SDS011;41083;52.932;6.674;2022-07-09T11:44:22;2.15;;;0.52;;
55212;SDS011;41083;52.932;6.674;2022-07-09T11:49:32;1.15;;;0.52;;
55212;SDS011;41083;52.932;6.674;2022-07-09T11:52:16;3.17;;;0.60;;
55212;SDS011;41083;52.932;6.674;2022-07-09T11:57:34;1.73;;;0.45;;
55212;SDS011;41083;52.932;6.674;2022-07-09T12:00:03;1.00;;;0.60;;
55212;SDS011;41083;52.932;6.674;2022-07-09T12:02:31;1.15;;;0.38;;
55212;SDS011;41083;52.932;6.674;2022-07-09T12:04:57;0.73;;;0.40;;
55212;SDS011;41083;52.932;6.674;2022-07-09T12:07:24;2.58;;;0.50;;
55212;SDS011;41083;52.932;6.674;2022-07-09T12:09:59;0.77;;;0.30;;
55212;SDS011;41083;52.932;6.674;2022-07-09T12:12:35;1.80;;;0.47;;
55212;SDS011;41083;52.932;6.674;2022-07-09T12:15:02;0.82;;;0.40;;
55212;SDS011;41083;52.932;6.674;2022-07-09T12:17:29;1.00;;;0.47;;
55212;SDS011;41083;52.932;6.674;2022-07-09T12:19:56;1.52;;;0.30;;
55212;SDS011;41083;52.932;6.674;2022-07-09T12:22:23;0.43;;;0.17;;
55212;SDS011;41083;52.932;6.674;2022-07-09T12:24:50;1.83;;;0.28;;
55212;SDS011;41083;52.932;6.674;2022-07-09T12:27:18;2.78;;;0.30;;
55212;SDS011;41083;52.932;6.674;2022-07-09T12:29:47;0.63;;;0.30;;
55212;SDS011;41083;52.932;6.674;2022-07-09T12:32:13;0.10;;;0.10;;
55212;SDS011;41083;52.932;6.674;2022-07-09T12:34:39;0.68;;;0.35;;
55212;SDS011;41083;52.932;6.674;2022-07-09T12:37:04;0.32;;;0.13;;
55212;SDS011;41083;52.932;6.674;2022-07-09T12:39:30;2.58;;;0.50;;
55212;SDS011;41083;52.932;6.674;2022-07-09T12:41:56;0.75;;;0.20;;
55212;SDS011;41083;52.932;6.674;2022-07-09T12:44:21;0.55;;;0.20;;
55212;SDS011;41083;52.932;6.674;2022-07-09T12:46:47;0.50;;;0.20;;
55212;SDS011;41083;52.932;6.674;2022-07-09T12:49:13;1.40;;;0.30;;
55212;SDS011;41083;52.932;6.674;2022-07-09T12:51:38;0.63;;;0.20;;
55212;SDS011;41083;52.932;6.674;2022-07-09T12:54:04;1.05;;;0.30;;
55212;SDS011;41083;52.932;6.674;2022-07-09T12:56:29;0.25;;;0.13;;
55212;SDS011;41083;52.932;6.674;2022-07-09T12:58:55;0.25;;;0.20;;
55212;SDS011;41083;52.932;6.674;2022-07-09T13:01:21;0.40;;;0.30;;
55212;SDS011;41083;52.932;6.674;2022-07-09T13:03:46;1.17;;;0.43;;
55212;SDS011;41083;52.932;6.674;2022-07-09T13:06:12;0.65;;;0.30;;
55212;SDS011;41083;52.932;6.674;2022-07-09T13:08:56;0.75;;;0.30;;
55212;SDS011;41083;52.932;6.674;2022-07-09T13:11:22;0.60;;;0.30;;
55212;SDS011;41083;52.932;6.674;2022-07-09T13:13:48;0.50;;;0.30;;
55212;SDS011;41083;52.932;6.674;2022-07-09T13:16:14;1.45;;;0.32;;
55212;SDS011;41083;52.932;6.674;2022-07-09T13:18:39;0.55;;;0.20;;
55212;SDS011;41083;52.932;6.674;2022-07-09T13:21:05;1.50;;;0.30;;
55212;SDS011;41083;52.932;6.674;2022-07-09T13:23:31;0.25;;;0.10;;
55212;SDS011;41083;52.932;6.674;2022-07-09T13:25:57;3.67;;;0.52;;
55212;SDS011;41083;52.932;6.674;2022-07-09T13:28:23;3.63;;;0.50;;
55212;SDS011;41083;52.932;6.674;2022-07-09T13:30:49;0.93;;;0.20;;
55212;SDS011;41083;52.932;6.674;2022-07-09T13:33:14;0.10;;;0.10;;
55212;SDS011;41083;52.932;6.674;2022-07-09T13:35:40;1.45;;;0.30;;
55212;SDS011;41083;52.932;6.674;2022-07-09T13:38:06;0.70;;;0.22;;
55212;SDS011;41083;52.932;6.674;2022-07-09T13:40:32;2.05;;;0.22;;
55212;SDS011;41083;52.932;6.674;2022-07-09T13:42:57;0.75;;;0.30;;
55212;SDS011;41083;52.932;6.674;2022-07-09T13:45:23;1.65;;;0.20;;
55212;SDS011;41083;52.932;6.674;2022-07-09T13:47:48;5.38;;;0.60;;
55212;SDS011;41083;52.932;6.674;2022-07-09T13:50:14;0.40;;;0.10;;
55212;SDS011;41083;52.932;6.674;2022-07-09T13:52:40;2.25;;;0.32;;
55212;SDS011;41083;52.932;6.674;2022-07-09T13:55:06;1.25;;;0.20;;
55212;SDS011;41083;52.932;6.674;2022-07-09T13:57:32;3.80;;;0.40;;
55212;SDS011;41083;52.932;6.674;2022-07-09T13:59:58;0.73;;;0.40;;
55212;SDS011;41083;52.932;6.674;2022-07-09T14:02:23;2.08;;;0.52;;
55212;SDS011;41083;52.932;6.674;2022-07-09T14:04:49;0.52;;;0.32;;
55212;SDS011;41083;52.932;6.674;2022-07-09T14:07:15;0.75;;;0.20;;
55212;SDS011;41083;52.932;6.674;2022-07-09T14:09:41;0.88;;;0.35;;
55212;SDS011;41083;52.932;6.674;2022-07-09T14:12:07;0.32;;;0.22;;
55212;SDS011;41083;52.932;6.674;2022-07-09T14:14:33;0.32;;;0.28;;
55212;SDS011;41083;52.932;6.674;2022-07-09T14:17:00;0.30;;;0.20;;
55212;SDS011;41083;52.932;6.674;2022-07-09T14:19:25;0.50;;;0.20;;
55212;SDS011;41083;52.932;6.674;2022-07-09T14:21:51;0.40;;;0.20;;
55212;SDS011;41083;52.932;6.674;2022-07-09T14:24:17;0.70;;;0.10;;
55212;SDS011;41083;52.932;6.674;2022-07-09T14:26:43;2.13;;;0.40;;
55212;SDS011;41083;52.932;6.674;2022-07-09T14:29:10;0.55;;;0.20;;
55212;SDS011;41083;52.932;6.674;2022-07-09T14:31:37;0.60;;;0.20;;
55212;SDS011;41083;52.932;6.674;2022-07-09T14:34:02;1.48;;;0.30;;
55212;SDS011;41083;52.932;6.674;2022-07-09T14:36:28;0.85;;;0.35;;
55212;SDS011;41083;52.932;6.674;2022-07-09T14:38:54;0.20;;;0.10;;
55212;SDS011;41083;52.932;6.674;2022-07-09T14:41:20;0.20;;;0.20;;
55212;SDS011;41083;52.932;6.674;2022-07-09T14:43:45;0.50;;;0.20;;
55212;SDS011;41083;52.932;6.674;2022-07-09T14:46:11;0.35;;;0.20;;
55212;SDS011;41083;52.932;6.674;2022-07-09T14:48:36;0.95;;;0.32;;
55212;SDS011;41083;52.932;6.674;2022-07-09T14:51:02;0.70;;;0.30;;
55212;SDS011;41083;52.932;6.674;2022-07-09T14:53:28;0.85;;;0.30;;
55212;SDS011;41083;52.932;6.674;2022-07-09T14:55:54;0.80;;;0.30;;
55212;SDS011;41083;52.932;6.674;2022-07-09T14:58:20;0.75;;;0.40;;
55212;SDS011;41083;52.932;6.674;2022-07-09T15:00:46;1.25;;;0.22;;